Time;durP1;ratioP1;P1;durP2;ratioP2;P2;SDS_P1;SDS_P2;PMS_P1;PMS_P2;Temp;Humidity;BMP_temperature;BMP_pressure;BME280_temperature;BME280_humidity;BME280_pressure;Samples;Min_cycle;Max_cycle;Signal;HPM_P1;HPM_P2
2022/12/26 06:00:26;;;;;;;3.03;2.53;;;12.40;97.20;;;;;;1700603;29;20194;-70
2022/12/26 06:01:18;;;;;;;3.85;2.28;;;12.50;97.20;;;;;;1700450;29;20300;-70
2022/12/26 06:02:10;;;;;;;2.83;2.50;;;12.40;97.20;;;;;;1699629;29;20554;-70
2022/12/26 06:03:01;;;;;;;3.95;2.60;;;12.50;97.20;;;;;;1700426;29;20214;-70
2022/12/26 06:03:55;;;;;;;2.77;2.30;;;12.50;97.20;;;;;;1700114;29;20203;-69
2022/12/26 06:04:45;;;;;;;2.58;2.38;;;12.50;97.20;;;;;;1700165;29;20265;-70
2022/12/26 06:05:37;;;;;;;2.47;2.27;;;12.50;97.20;;;;;;1700463;29;20203;-70
2022/12/26 06:06:28;;;;;;;2.90;2.70;;;12.50;97.20;;;;;;1700252;29;20207;-70
2022/12/26 06:07:20;;;;;;;2.60;2.37;;;12.50;97.20;;;;;;1699630;29;20203;-70
2022/12/26 06:08:10;;;;;;;2.60;2.33;;;12.50;97.20;;;;;;1700375;29;20684;-70
2022/12/26 06:09:02;;;;;;;2.87;2.37;;;12.50;97.20;;;;;;1700340;29;20199;-70
2022/12/26 06:09:53;;;;;;;2.92;2.60;;;12.50;97.20;;;;;;1700426;29;20200;-70
2022/12/26 06:10:44;;;;;;;2.70;2.50;;;12.50;97.20;;;;;;1700267;29;20724;-70
2022/12/26 06:11:35;;;;;;;3.00;2.50;;;12.50;97.20;;;;;;1700445;29;20211;-70
2022/12/26 06:12:27;;;;;;;3.00;2.50;;;12.50;97.20;;;;;;1700535;29;20213;-70
2022/12/26 06:13:18;;;;;;;2.40;2.15;;;12.50;97.20;;;;;;1700351;29;20210;-70
2022/12/26 06:14:09;;;;;;;2.90;2.67;;;12.50;97.20;;;;;;1700439;29;20198;-70
2022/12/26 06:15:00;;;;;;;3.10;2.80;;;12.50;97.20;;;;;;1700262;29;20207;-70
2022/12/26 06:15:53;;;;;;;3.43;2.97;;;12.50;97.20;;;;;;1698504;29;20203;-70
2022/12/26 06:16:44;;;;;;;4.20;3.80;;;12.50;97.20;;;;;;1699834;29;20660;-70
2022/12/26 06:17:36;;;;;;;4.27;3.63;;;12.50;97.20;;;;;;1700160;29;20578;-70
2022/12/26 06:18:26;;;;;;;10.48;7.80;;;12.50;97.20;;;;;;1700130;29;20206;-70
2022/12/26 06:19:18;;;;;;;11.53;8.00;;;12.50;97.20;;;;;;1700334;29;20207;-69
2022/12/26 06:20:09;;;;;;;10.10;5.72;;;12.50;97.20;;;;;;1700331;29;20216;-70
2022/12/26 06:21:05;;;;;;;8.98;6.18;;;12.60;97.20;;;;;;1700411;29;20233;-70
2022/12/26 06:21:56;;;;;;;8.45;7.15;;;12.60;97.20;;;;;;1700630;29;20195;-70
2022/12/26 06:22:47;;;;;;;7.57;5.60;;;12.60;97.20;;;;;;1700345;29;20204;-70
2022/12/26 06:23:39;;;;;;;11.43;6.68;;;12.60;97.20;;;;;;1700556;29;20689;-71
2022/12/26 06:24:30;;;;;;;6.80;5.72;;;12.60;97.20;;;;;;1700308;29;20223;-71
2022/12/26 06:25:21;;;;;;;6.60;5.30;;;12.60;97.20;;;;;;1700397;29;20561;-71
2022/12/26 06:26:14;;;;;;;5.47;4.10;;;12.60;97.20;;;;;;1694973;29;20234;-71
2022/12/26 06:27:04;;;;;;;4.47;4.07;;;12.60;97.20;;;;;;1699189;29;20985;-71
2022/12/26 06:27:55;;;;;;;5.53;4.03;;;12.60;97.20;;;;;;1700135;29;20576;-71
2022/12/26 06:28:47;;;;;;;3.63;2.77;;;12.60;97.20;;;;;;1700267;29;20199;-71
2022/12/26 06:29:38;;;;;;;2.92;2.67;;;12.60;97.20;;;;;;1700095;29;20214;-71
2022/12/26 06:30:29;;;;;;;3.33;2.50;;;12.60;97.20;;;;;;1700001;29;20242;-71
2022/12/26 06:31:22;;;;;;;4.57;2.50;;;12.60;97.20;;;;;;1700384;29;20597;-71
2022/12/26 06:32:14;;;;;;;2.80;2.45;;;12.60;97.20;;;;;;1694354;29;20204;-71
2022/12/26 06:33:05;;;;;;;2.67;2.47;;;12.60;97.20;;;;;;1699758;29;20200;-71
2022/12/26 06:34:00;;;;;;;2.60;2.40;;;12.60;97.20;;;;;;1700447;29;20207;-71
2022/12/26 06:34:50;;;;;;;2.65;2.40;;;12.60;97.20;;;;;;1696072;29;21077;-71
2022/12/26 06:35:42;;;;;;;3.93;2.47;;;12.60;97.20;;;;;;1693794;29;20999;-71
2022/12/26 06:36:33;;;;;;;3.10;2.38;;;12.60;97.20;;;;;;1695478;29;20232;-70
2022/12/26 06:37:25;;;;;;;2.40;2.20;;;12.60;97.20;;;;;;1700472;29;20207;-71
2022/12/26 06:38:15;;;;;;;3.05;2.67;;;12.60;97.20;;;;;;1701433;29;20207;-71
2022/12/26 06:39:07;;;;;;;3.17;2.57;;;12.60;97.20;;;;;;1695169;29;20200;-71
2022/12/26 06:39:58;;;;;;;2.30;2.10;;;12.60;97.20;;;;;;1695128;29;20454;-71
2022/12/26 06:40:50;;;;;;;3.77;2.47;;;12.60;97.20;;;;;;1698851;29;20221;-71
2022/12/26 06:41:40;;;;;;;2.38;2.08;;;12.60;97.20;;;;;;1701596;29;20719;-71
2022/12/26 06:42:32;;;;;;;2.50;2.30;;;12.60;97.20;;;;;;1699775;29;20231;-71
2022/12/26 06:43:23;;;;;;;2.55;2.35;;;12.60;97.20;;;;;;1694921;29;20204;-71
2022/12/26 06:44:14;;;;;;;2.50;2.30;;;12.60;97.20;;;;;;1698927;29;20207;-71
2022/12/26 06:45:06;;;;;;;3.10;2.35;;;12.60;97.20;;;;;;1701453;29;20212;-71
2022/12/26 06:45:59;;;;;;;2.90;2.60;;;12.60;97.20;;;;;;1701093;29;20214;-71
2022/12/26 06:46:51;;;;;;;4.43;2.47;;;12.60;97.20;;;;;;1696607;29;20596;-70
2022/12/26 06:47:42;;;;;;;1.95;1.85;;;12.60;97.20;;;;;;1694978;29;20320;-71
2022/12/26 06:48:38;;;;;;;2.30;2.10;;;12.60;97.20;;;;;;1696653;29;20566;-71
2022/12/26 06:49:29;;;;;;;2.45;1.90;;;12.60;97.20;;;;;;1701391;29;20207;-71
2022/12/26 06:50:22;;;;;;;3.80;2.78;;;12.60;97.20;;;;;;1701162;29;20223;-71
2022/12/26 06:51:15;;;;;;;3.15;2.33;;;12.60;97.20;;;;;;1694948;29;20214;-71
2022/12/26 06:52:07;;;;;;;2.88;2.20;;;12.60;97.20;;;;;;1694878;29;20200;-71
2022/12/26 06:52:58;;;;;;;2.95;2.67;;;12.60;97.20;;;;;;1699938;29;20752;-71
2022/12/26 06:53:50;;;;;;;2.30;2.10;;;12.60;97.20;;;;;;1701375;29;20199;-71
2022/12/26 06:54:42;;;;;;;2.58;1.85;;;12.60;97.20;;;;;;1698496;29;20239;-71
2022/12/26 06:55:33;;;;;;;3.58;2.60;;;12.60;97.20;;;;;;1694794;29;20212;-71
2022/12/26 06:56:26;;;;;;;2.20;2.00;;;12.60;97.20;;;;;;1695355;29;20291;-71
2022/12/26 06:57:17;;;;;;;2.45;2.22;;;12.60;97.20;;;;;;1700724;29;20265;-71
2022/12/26 06:58:09;;;;;;;2.23;2.03;;;12.60;97.20;;;;;;1701326;29;20262;-71
2022/12/26 06:59:02;;;;;;;2.53;2.10;;;12.60;97.20;;;;;;1695782;29;20200;-71
2022/12/26 06:59:54;;;;;;;3.30;2.13;;;12.60;97.20;;;;;;1694958;29;20204;-71
2022/12/26 07:00:44;;;;;;;2.63;2.42;;;12.60;97.20;;;;;;1698109;29;20609;-71
2022/12/26 07:01:36;;;;;;;3.00;2.70;;;12.60;97.20;;;;;;1701462;29;20207;-71
2022/12/26 07:02:28;;;;;;;3.20;2.40;;;12.60;97.20;;;;;;1700419;29;20207;-71
2022/12/26 07:03:24;;;;;;;2.22;2.03;;;12.60;97.20;;;;;;1695054;29;20215;-71
2022/12/26 07:04:16;;;;;;;3.03;2.50;;;12.60;97.20;;;;;;1694812;29;20188;-71
2022/12/26 07:05:08;;;;;;;2.63;2.42;;;12.60;97.20;;;;;;1700345;29;20230;-71
2022/12/26 07:06:03;;;;;;;3.10;2.50;;;12.60;97.20;;;;;;1701554;29;20688;-71
2022/12/26 07:06:54;;;;;;;2.90;2.45;;;12.60;97.20;;;;;;1696655;29;20227;-71
2022/12/26 07:07:49;;;;;;;3.25;2.10;;;12.60;97.20;;;;;;1694745;29;20215;-71
2022/12/26 07:08:41;;;;;;;2.50;2.30;;;12.60;97.20;;;;;;1697596;29;20199;-71
2022/12/26 07:09:32;;;;;;;3.22;2.97;;;12.60;97.20;;;;;;1697054;29;20207;-70
2022/12/26 07:10:23;;;;;;;2.37;2.20;;;12.60;97.20;;;;;;1695151;29;20283;-71
2022/12/26 07:11:19;;;;;;;3.47;2.70;;;12.60;97.20;;;;;;1694904;29;20242;-71
2022/12/26 07:12:10;;;;;;;2.30;2.10;;;12.60;97.20;;;;;;1697845;29;20191;-70
2022/12/26 07:13:01;;;;;;;2.25;2.05;;;12.60;97.20;;;;;;1700996;29;20270;-71
2022/12/26 07:13:54;;;;;;;2.17;1.90;;;12.60;97.20;;;;;;1700573;29;20278;-71
2022/12/26 07:14:45;;;;;;;2.40;2.20;;;12.60;97.20;;;;;;1697098;29;20203;-70
2022/12/26 07:15:37;;;;;;;2.43;2.23;;;12.60;97.20;;;;;;1697542;29;20804;-71
2022/12/26 07:16:28;;;;;;;2.70;2.50;;;12.60;97.20;;;;;;1697210;29;20452;-71
2022/12/26 07:17:20;;;;;;;2.60;2.40;;;12.60;97.20;;;;;;1700424;29;20657;-71
2022/12/26 07:18:12;;;;;;;2.67;2.45;;;12.60;97.20;;;;;;1700705;29;20685;-71
2022/12/26 07:19:04;;;;;;;2.55;2.35;;;12.60;97.20;;;;;;1701089;29;20694;-71
2022/12/26 07:19:55;;;;;;;3.15;2.58;;;12.60;97.20;;;;;;1700046;29;20210;-71
2022/12/26 07:20:50;;;;;;;2.80;2.60;;;12.60;97.20;;;;;;1697267;29;20307;-71
2022/12/26 07:21:41;;;;;;;4.00;2.60;;;12.60;97.20;;;;;;1698464;29;20199;-71
2022/12/26 07:22:33;;;;;;;3.50;2.50;;;12.60;97.20;;;;;;1697442;29;20255;-71
2022/12/26 07:23:24;;;;;;;3.47;2.58;;;12.60;97.20;;;;;;1696474;29;20203;-71
2022/12/26 07:24:18;;;;;;;3.10;2.33;;;12.60;97.20;;;;;;1700552;29;20199;-71
2022/12/26 07:25:09;;;;;;;2.85;2.38;;;12.70;97.20;;;;;;1701151;29;20227;-71
2022/12/26 07:26:00;;;;;;;2.42;2.22;;;12.70;97.20;;;;;;1697494;29;20672;-71
2022/12/26 07:26:52;;;;;;;2.87;2.37;;;12.70;97.20;;;;;;1694307;29;20935;-71
2022/12/26 07:27:43;;;;;;;2.55;2.35;;;12.70;97.20;;;;;;1699696;29;20207;-71
2022/12/26 07:28:35;;;;;;;2.30;2.10;;;12.70;97.20;;;;;;1694784;29;20199;-71
2022/12/26 07:29:26;;;;;;;4.72;2.72;;;12.70;97.20;;;;;;1700473;29;20200;-71
2022/12/26 07:30:17;;;;;;;3.43;2.13;;;12.70;97.20;;;;;;1695287;29;20204;-72
2022/12/26 07:31:08;;;;;;;2.75;2.50;;;12.70;97.20;;;;;;1699219;29;20188;-71
2022/12/26 07:32:00;;;;;;;2.30;2.10;;;12.70;97.20;;;;;;1697646;29;20200;-71
2022/12/26 07:32:51;;;;;;;3.65;2.85;;;12.70;97.20;;;;;;1694585;29;20464;-71
2022/12/26 07:33:47;;;;;;;2.37;2.27;;;12.70;97.20;;;;;;1694743;29;20203;-71
2022/12/26 07:34:37;;;;;;;3.38;2.70;;;12.70;97.20;;;;;;1694870;29;20208;-70
2022/12/26 07:35:29;;;;;;;2.57;2.20;;;12.70;97.20;;;;;;1694670;29;20207;-71
2022/12/26 07:36:21;;;;;;;5.68;2.78;;;12.70;97.20;;;;;;1694713;29;20455;-70
2022/12/26 07:37:12;;;;;;;3.97;2.30;;;12.70;97.20;;;;;;1694073;29;20246;-70
2022/12/26 07:38:03;;;;;;;2.38;2.17;;;12.70;97.20;;;;;;1694542;29;20215;-70
2022/12/26 07:38:55;;;;;;;2.27;2.07;;;12.70;97.20;;;;;;1694725;29;20203;-71
2022/12/26 07:39:46;;;;;;;2.33;2.20;;;12.70;97.20;;;;;;1694612;29;20226;-71
2022/12/26 07:40:38;;;;;;;2.80;2.60;;;12.70;97.20;;;;;;1696816;29;20318;-71
2022/12/26 07:42:39;;;;;;;2.80;2.28;;;12.70;97.20;;;;;;1699607;29;20581;-71
2022/12/26 07:43:30;;;;;;;2.80;2.60;;;12.70;97.20;;;;;;1694286;29;20733;-71
2022/12/26 07:44:21;;;;;;;2.90;2.43;;;12.70;97.20;;;;;;1697469;29;20563;-71
2022/12/26 07:45:12;;;;;;;3.75;2.30;;;12.70;97.20;;;;;;1700869;29;20591;-71
2022/12/26 07:46:04;;;;;;;2.70;2.50;;;12.70;97.20;;;;;;1700467;29;20199;-71
2022/12/26 07:46:56;;;;;;;3.13;2.83;;;12.70;97.20;;;;;;1696346;29;20283;-70
2022/12/26 07:47:48;;;;;;;2.95;2.40;;;12.70;97.20;;;;;;1697886;29;20299;-70
2022/12/26 07:48:39;;;;;;;3.80;3.05;;;12.70;97.20;;;;;;1697515;29;20210;-70
2022/12/26 07:49:32;;;;;;;3.00;2.33;;;12.70;97.20;;;;;;1697611;29;20270;-71
2022/12/26 07:50:24;;;;;;;2.80;2.35;;;12.70;97.20;;;;;;1699571;29;20208;-71
2022/12/26 07:51:16;;;;;;;2.40;2.20;;;12.70;97.20;;;;;;1695974;29;20208;-71
2022/12/26 07:52:07;;;;;;;2.90;2.60;;;12.70;97.20;;;;;;1698011;29;20200;-71
2022/12/26 07:52:59;;;;;;;3.37;2.80;;;12.70;97.20;;;;;;1694886;29;20287;-71
2022/12/26 07:53:50;;;;;;;2.70;2.50;;;12.70;97.20;;;;;;1694699;29;20208;-71
2022/12/26 07:54:41;;;;;;;3.07;2.87;;;12.70;97.20;;;;;;1694561;29;20208;-71
2022/12/26 07:55:32;;;;;;;3.35;2.58;;;12.70;97.20;;;;;;1695433;29;20203;-71
2022/12/26 07:56:24;;;;;;;3.30;2.47;;;12.70;97.20;;;;;;1698589;29;20213;-71
2022/12/26 07:57:15;;;;;;;3.00;2.28;;;12.70;97.20;;;;;;1693920;29;20619;-71
2022/12/26 07:58:06;;;;;;;2.40;2.20;;;12.70;97.20;;;;;;1694486;29;20199;-70
2022/12/26 07:58:57;;;;;;;3.13;2.80;;;12.70;97.20;;;;;;1697544;29;20200;-70
2022/12/26 07:59:49;;;;;;;4.20;2.50;;;12.70;97.20;;;;;;1701033;29;20199;-70
2022/12/26 08:00:40;;;;;;;4.75;2.60;;;12.70;97.20;;;;;;1701033;29;20226;-70
2022/12/26 08:01:31;;;;;;;2.27;2.07;;;12.70;97.20;;;;;;1701070;29;20652;-70
2022/12/26 08:02:22;;;;;;;3.10;2.63;;;12.70;97.20;;;;;;1701108;29;20587;-70
2022/12/26 08:03:14;;;;;;;2.60;2.40;;;12.70;97.20;;;;;;1701087;29;20225;-70
2022/12/26 08:04:04;;;;;;;3.92;2.50;;;12.70;97.20;;;;;;1701066;29;20203;-71
2022/12/26 08:04:57;;;;;;;3.00;2.80;;;12.70;97.20;;;;;;1700985;29;20206;-70
2022/12/26 08:05:49;;;;;;;2.70;2.50;;;12.70;97.20;;;;;;1701046;29;20840;-71
2022/12/26 08:06:41;;;;;;;2.75;2.30;;;12.70;97.20;;;;;;1700417;29;20215;-71
2022/12/26 08:07:31;;;;;;;2.30;2.10;;;12.70;97.20;;;;;;1701114;29;20218;-71
2022/12/26 08:08:23;;;;;;;3.00;2.03;;;12.70;97.20;;;;;;1701013;29;20207;-71
2022/12/26 08:09:14;;;;;;;2.65;2.30;;;12.70;97.20;;;;;;1701133;29;20709;-71
2022/12/26 08:10:07;;;;;;;2.50;2.30;;;12.70;97.20;;;;;;1700776;29;20227;-70
2022/12/26 08:10:59;;;;;;;2.45;2.25;;;12.70;97.20;;;;;;1700898;29;20223;-71
2022/12/26 08:11:50;;;;;;;2.97;2.53;;;12.70;97.20;;;;;;1700958;29;20200;-71
2022/12/26 08:12:42;;;;;;;2.60;2.30;;;12.70;97.20;;;;;;1701144;29;20203;-71
2022/12/26 08:13:34;;;;;;;2.85;2.65;;;12.80;97.20;;;;;;1701077;29;20267;-71
2022/12/26 08:14:25;;;;;;;3.33;2.40;;;12.80;97.20;;;;;;1701099;29;20662;-71
2022/12/26 08:15:17;;;;;;;3.43;2.37;;;12.80;97.20;;;;;;1700944;29;20604;-70
2022/12/26 08:16:10;;;;;;;5.40;3.03;;;12.80;97.20;;;;;;1700929;29;20699;-70
2022/12/26 08:17:02;;;;;;;3.55;2.78;;;12.80;97.20;;;;;;1700339;29;20206;-71
2022/12/26 08:17:53;;;;;;;1.80;1.70;;;12.80;97.20;;;;;;1700674;29;20222;-71
2022/12/26 08:18:45;;;;;;;3.00;2.50;;;12.70;97.20;;;;;;1701034;29;20293;-70
2022/12/26 08:19:35;;;;;;;2.42;2.22;;;12.70;97.20;;;;;;1701099;29;20673;-70
2022/12/26 08:20:28;;;;;;;3.70;2.70;;;12.70;97.20;;;;;;1700630;29;20546;-70
2022/12/26 08:21:19;;;;;;;3.35;3.03;;;12.70;97.20;;;;;;1694404;29;20587;-70
2022/12/26 08:22:11;;;;;;;4.13;2.80;;;12.70;97.20;;;;;;1694438;29;20207;-70
2022/12/26 08:23:01;;;;;;;3.58;2.35;;;12.70;97.20;;;;;;1694508;29;20211;-72
2022/12/26 08:23:53;;;;;;;2.73;2.23;;;12.70;97.20;;;;;;1694410;29;20210;-70
2022/12/26 08:24:44;;;;;;;4.45;2.60;;;12.70;97.20;;;;;;1700759;29;20210;-70
2022/12/26 08:25:36;;;;;;;3.23;2.70;;;12.70;97.20;;;;;;1700781;29;20229;-70
2022/12/26 08:26:26;;;;;;;5.72;2.80;;;12.70;97.20;;;;;;1700779;29;20214;-71
2022/12/26 08:27:18;;;;;;;3.20;2.70;;;12.70;97.20;;;;;;1700235;29;20203;-71
2022/12/26 08:28:09;;;;;;;3.10;2.80;;;12.70;97.20;;;;;;1700561;29;20203;-71
2022/12/26 08:29:01;;;;;;;3.07;2.80;;;12.70;97.20;;;;;;1700963;29;20213;-71
2022/12/26 08:29:51;;;;;;;4.68;2.50;;;12.70;97.20;;;;;;1700452;29;20214;-70
2022/12/26 08:30:44;;;;;;;3.13;2.60;;;12.70;97.20;;;;;;1700737;29;20258;-70
2022/12/26 08:31:35;;;;;;;3.35;2.80;;;12.70;97.20;;;;;;1700895;29;20291;-71
2022/12/26 08:32:26;;;;;;;2.87;2.67;;;12.70;97.20;;;;;;1700786;29;20207;-71
2022/12/26 08:33:17;;;;;;;4.20;3.80;;;12.70;97.20;;;;;;1700531;29;20214;-71
2022/12/26 08:34:09;;;;;;;4.47;4.07;;;12.70;97.20;;;;;;1696821;29;20195;-71
2022/12/26 08:35:00;;;;;;;4.40;4.00;;;12.70;97.20;;;;;;1697307;29;20196;-71
2022/12/26 08:35:53;;;;;;;3.93;3.53;;;12.70;97.20;;;;;;1698000;29;20188;-71
2022/12/26 08:36:43;;;;;;;5.18;3.83;;;12.70;97.20;;;;;;1696446;29;20688;-71
2022/12/26 08:37:35;;;;;;;4.07;2.93;;;12.70;97.20;;;;;;1696729;29;20674;-71
2022/12/26 08:38:26;;;;;;;3.38;3.08;;;12.70;97.20;;;;;;1698121;29;20225;-71
2022/12/26 08:39:17;;;;;;;2.97;2.70;;;12.70;97.20;;;;;;1698014;29;20207;-70
2022/12/26 08:40:09;;;;;;;3.70;3.22;;;12.70;97.20;;;;;;1697952;29;20586;-70
2022/12/26 08:41:01;;;;;;;3.88;3.38;;;12.70;97.20;;;;;;1697586;29;20215;-70
2022/12/26 08:41:53;;;;;;;5.75;3.25;;;12.70;97.20;;;;;;1696738;29;20594;-71
2022/12/26 08:42:43;;;;;;;3.35;3.00;;;12.70;97.20;;;;;;1697575;29;20651;-70
2022/12/26 08:43:36;;;;;;;3.57;2.93;;;12.70;97.20;;;;;;1697366;29;20568;-70
2022/12/26 08:44:26;;;;;;;3.22;2.95;;;12.70;97.20;;;;;;1696771;29;20203;-71
2022/12/26 08:45:18;;;;;;;6.80;3.37;;;12.70;97.20;;;;;;1697579;29;20315;-70
2022/12/26 08:46:10;;;;;;;3.63;3.10;;;12.70;97.20;;;;;;1697902;29;20637;-71
2022/12/26 08:47:02;;;;;;;3.53;3.22;;;12.60;97.20;;;;;;1696028;29;20191;-71
2022/12/26 08:47:53;;;;;;;3.70;3.10;;;12.60;97.20;;;;;;1697051;29;20196;-71
2022/12/26 08:48:46;;;;;;;4.03;3.25;;;12.60;97.20;;;;;;1698041;29;20200;-71
2022/12/26 08:49:37;;;;;;;3.80;2.70;;;12.60;97.20;;;;;;1696915;29;20677;-71
2022/12/26 08:50:29;;;;;;;3.50;3.20;;;12.60;97.20;;;;;;1696619;29;20586;-71
2022/12/26 08:51:22;;;;;;;4.10;3.70;;;12.60;97.20;;;;;;1698072;29;20351;-71
2022/12/26 08:52:14;;;;;;;5.10;4.63;;;12.60;97.20;;;;;;1697316;29;20666;-71
2022/12/26 08:53:05;;;;;;;4.40;4.00;;;12.60;97.20;;;;;;1696362;29;20204;-71
2022/12/26 08:53:56;;;;;;;5.40;4.90;;;12.60;97.20;;;;;;1700456;29;20203;-71
2022/12/26 08:54:47;;;;;;;5.22;4.72;;;12.60;97.20;;;;;;1700403;29;20691;-71
2022/12/26 08:55:39;;;;;;;18.40;5.80;;;12.60;97.20;;;;;;1700726;29;20665;-70
2022/12/26 08:56:30;;;;;;;4.90;4.50;;;12.60;97.20;;;;;;1700609;29;20218;-71
2022/12/26 08:57:22;;;;;;;5.25;4.45;;;12.60;97.20;;;;;;1700151;29;20207;-71
2022/12/26 08:58:13;;;;;;;5.07;4.63;;;12.60;97.20;;;;;;1700595;29;20578;-71
2022/12/26 08:59:05;;;;;;;5.10;4.60;;;12.60;97.20;;;;;;1700632;29;20593;-71
2022/12/26 08:59:55;;;;;;;6.70;5.65;;;12.60;97.20;;;;;;1700566;29;20199;-71
2022/12/26 09:00:47;;;;;;;7.83;6.70;;;12.60;97.20;;;;;;1700524;29;20241;-71
2022/12/26 09:01:39;;;;;;;7.35;6.65;;;12.60;97.20;;;;;;1700591;29;20218;-71
2022/12/26 09:02:31;;;;;;;7.72;6.10;;;12.60;97.20;;;;;;1700547;29;20207;-71
2022/12/26 09:03:21;;;;;;;8.23;5.85;;;12.60;97.20;;;;;;1700649;29;20214;-71
2022/12/26 09:04:14;;;;;;;6.40;5.73;;;12.60;97.20;;;;;;1700618;29;20209;-71
2022/12/26 09:05:06;;;;;;;7.00;6.30;;;12.50;97.20;;;;;;1700545;29;20204;-71
2022/12/26 09:05:59;;;;;;;5.18;4.70;;;12.50;97.20;;;;;;1700717;29;20202;-71
2022/12/26 09:06:52;;;;;;;4.70;4.18;;;12.50;97.20;;;;;;1699572;29;20211;-71
2022/12/26 09:07:43;;;;;;;5.03;3.70;;;12.50;97.20;;;;;;1700608;29;20206;-71
2022/12/26 09:08:35;;;;;;;3.73;3.37;;;12.50;97.20;;;;;;1700527;29;20207;-71
2022/12/26 09:09:26;;;;;;;4.03;3.72;;;12.50;97.20;;;;;;1700637;29;20211;-71
2022/12/26 09:10:18;;;;;;;3.38;3.08;;;12.50;97.20;;;;;;1700669;29;20704;-75
2022/12/26 09:11:11;;;;;;;6.35;4.22;;;12.50;97.20;;;;;;1700578;29;20210;-72
2022/12/26 09:12:03;;;;;;;4.50;4.10;;;12.60;97.20;;;;;;1700757;29;20571;-72
2022/12/26 09:12:54;;;;;;;4.15;3.75;;;12.60;97.20;;;;;;1700529;29;20207;-71
2022/12/26 09:13:47;;;;;;;5.73;5.10;;;12.60;97.20;;;;;;1700642;29;20203;-71
2022/12/26 09:14:38;;;;;;;6.85;5.47;;;12.60;97.20;;;;;;1700598;29;20219;-71
2022/12/26 09:15:30;;;;;;;7.70;6.90;;;12.60;97.20;;;;;;1700044;29;20199;-71
2022/12/26 09:16:23;;;;;;;7.50;6.55;;;12.60;97.20;;;;;;1700506;29;20673;-71
2022/12/26 09:17:14;;;;;;;8.82;6.10;;;12.60;97.20;;;;;;1699442;29;20631;-71
2022/12/26 09:18:06;;;;;;;8.30;7.25;;;12.50;97.20;;;;;;1694040;29;20579;-71
2022/12/26 09:19:00;;;;;;;7.90;7.10;;;12.50;97.20;;;;;;1695995;29;20199;-70
2022/12/26 09:19:50;;;;;;;6.93;6.28;;;12.50;97.20;;;;;;1700639;29;20567;-73
2022/12/26 09:20:42;;;;;;;8.17;6.73;;;12.50;97.20;;;;;;1700565;29;20283;-73
2022/12/26 09:21:33;;;;;;;7.72;6.85;;;12.50;97.20;;;;;;1698346;29;20674;-73
2022/12/26 09:23:36;;;;;;;6.07;5.10;;;12.50;97.20;;;;;;1694140;29;20196;-74
2022/12/26 09:24:27;;;;;;;8.20;6.35;;;12.50;97.20;;;;;;1694020;29;20215;-74
2022/12/26 09:25:21;;;;;;;7.70;6.13;;;12.50;97.20;;;;;;1694130;29;20203;-74
2022/12/26 09:26:14;;;;;;;5.35;4.30;;;12.50;97.20;;;;;;1694034;29;20212;-74
2022/12/26 09:27:08;;;;;;;5.68;5.18;;;12.50;97.20;;;;;;1693404;29;20677;-72
2022/12/26 09:28:13;;;;;;;3.92;3.63;;;12.50;97.20;;;;;;1693985;29;20204;-73
2022/12/26 09:29:10;;;;;;;5.97;4.38;;;12.50;97.20;;;;;;1699318;29;20937;-72
2022/12/26 09:30:36;;;;;;;4.22;3.92;;;12.50;97.20;;;;;;1700602;29;20219;-73
2022/12/26 09:31:32;;;;;;;3.78;3.47;;;12.50;97.20;;;;;;1700289;29;20218;-72
2022/12/26 09:32:59;;;;;;;4.78;3.72;;;12.50;97.20;;;;;;1700433;29;20211;-73
2022/12/26 09:33:50;;;;;;;4.18;3.72;;;12.50;97.20;;;;;;1680152;29;20213;-73
2022/12/26 09:34:41;;;;;;;4.10;3.70;;;12.40;97.20;;;;;;1686844;29;20219;-73
2022/12/26 09:35:32;;;;;;;8.23;4.20;;;12.40;97.20;;;;;;1700565;29;20454;-73
2022/12/26 09:36:26;;;;;;;4.40;4.00;;;12.30;97.20;;;;;;1700590;29;20203;-73
2022/12/26 09:37:17;;;;;;;5.00;4.60;;;12.30;97.20;;;;;;1699908;29;20207;-72
2022/12/26 09:38:10;;;;;;;5.13;4.63;;;12.30;97.20;;;;;;1700443;29;20240;-71
2022/12/26 09:39:01;;;;;;;4.93;4.45;;;12.30;97.20;;;;;;1700523;29;20210;-73
2022/12/26 09:39:53;;;;;;;5.40;4.90;;;12.30;97.20;;;;;;1700531;29;20207;-71
2022/12/26 09:40:54;;;;;;;6.53;5.53;;;12.20;97.20;;;;;;1700326;29;20230;-72
2022/12/26 09:41:59;;;;;;;5.20;4.70;;;12.20;97.20;;;;;;1700593;29;20695;-71
2022/12/26 09:43:03;;;;;;;5.65;5.15;;;12.20;97.20;;;;;;1700589;29;20206;-72
2022/12/26 09:44:05;;;;;;;5.57;5.07;;;12.20;97.20;;;;;;1700495;29;20211;-71
2022/12/26 09:45:03;;;;;;;5.20;4.70;;;12.10;97.20;;;;;;1700437;29;20589;-71
2022/12/26 09:46:10;;;;;;;4.38;4.05;;;12.10;97.20;;;;;;1694460;29;20611;-71
2022/12/26 09:47:14;;;;;;;7.63;4.75;;;12.10;97.20;;;;;;1693448;29;20192;-72
2022/12/26 09:48:13;;;;;;;5.55;4.97;;;12.00;97.20;;;;;;1693858;29;20226;-71
2022/12/26 09:49:12;;;;;;;5.60;5.10;;;12.00;97.20;;;;;;1693942;29;20219;-71
2022/12/26 09:50:12;;;;;;;5.38;4.82;;;12.00;97.20;;;;;;1694002;29;20204;-70
2022/12/26 09:51:03;;;;;;;5.25;4.72;;;12.00;97.20;;;;;;1694034;29;20192;-71
2022/12/26 09:51:58;;;;;;;5.78;5.15;;;12.00;97.20;;;;;;1693996;29;20211;-72
2022/12/26 09:52:53;;;;;;;6.40;5.70;;;12.00;97.20;;;;;;1693956;29;20208;-72
2022/12/26 09:53:47;;;;;;;5.30;4.60;;;12.00;97.20;;;;;;1694017;29;20208;-71
2022/12/26 09:54:41;;;;;;;5.63;5.03;;;12.00;97.20;;;;;;1694011;29;20601;-72
2022/12/26 09:55:42;;;;;;;4.95;4.10;;;12.00;97.20;;;;;;1694000;29;20211;-74
2022/12/26 09:56:36;;;;;;;5.28;4.78;;;12.00;97.20;;;;;;1693975;29;20567;-74
2022/12/26 09:57:37;;;;;;;5.63;5.13;;;11.90;97.20;;;;;;1693780;29;20282;-72
2022/12/26 09:58:30;;;;;;;6.28;5.55;;;11.90;97.20;;;;;;1693879;29;20216;-73
2022/12/26 09:59:24;;;;;;;6.55;5.95;;;11.90;97.20;;;;;;1694012;29;20629;-73
2022/12/26 10:00:18;;;;;;;5.97;5.47;;;11.90;97.20;;;;;;1693787;29;20227;-73
2022/12/26 10:01:15;;;;;;;6.97;5.75;;;11.90;97.20;;;;;;1697651;29;20196;-72
2022/12/26 10:02:15;;;;;;;8.07;7.30;;;11.90;97.20;;;;;;1700461;29;20565;-72
2022/12/26 10:03:09;;;;;;;7.15;6.55;;;11.90;97.20;;;;;;1700441;29;20227;-74
2022/12/26 10:04:06;;;;;;;5.93;5.20;;;11.90;97.20;;;;;;1700644;29;20618;-75
2022/12/26 10:04:57;;;;;;;5.68;5.05;;;11.90;97.20;;;;;;1698801;29;20199;-72
2022/12/26 10:06:00;;;;;;;7.32;5.82;;;11.90;97.20;;;;;;1700530;29;20227;-71
2022/12/26 10:07:04;;;;;;;6.43;5.82;;;11.90;97.20;;;;;;1699862;29;20219;-71
2022/12/26 10:08:00;;;;;;;10.00;6.28;;;11.90;97.20;;;;;;1700442;29;20211;-71
2022/12/26 10:09:15;;;;;;;6.07;5.57;;;11.90;97.20;;;;;;1696023;29;20200;-77
2022/12/26 10:10:10;;;;;;;5.88;5.28;;;11.90;97.20;;;;;;1695008;29;20200;-72
2022/12/26 10:11:03;;;;;;;6.30;5.70;;;11.90;97.20;;;;;;1700522;29;20222;-72
2022/12/26 10:12:08;;;;;;;4.90;4.50;;;11.90;97.20;;;;;;1700709;29;20210;-73
2022/12/26 10:13:11;;;;;;;5.65;5.15;;;11.90;97.20;;;;;;1701780;29;20219;-72
2022/12/26 10:14:08;;;;;;;6.13;5.53;;;11.90;97.20;;;;;;1701712;29;20251;-72
2022/12/26 10:15:09;;;;;;;5.95;5.28;;;11.90;97.20;;;;;;1701911;29;20224;-73
2022/12/26 10:16:05;;;;;;;5.65;4.63;;;11.80;97.20;;;;;;1701902;29;20199;-73
2022/12/26 10:17:02;;;;;;;5.63;5.13;;;11.80;97.20;;;;;;1701113;29;20250;-73
2022/12/26 10:18:03;;;;;;;5.10;4.60;;;11.80;97.20;;;;;;1701654;29;20192;-73
2022/12/26 10:19:02;;;;;;;5.13;4.72;;;11.80;97.20;;;;;;1701750;29;20767;-74
2022/12/26 10:20:06;;;;;;;6.60;5.22;;;11.80;97.20;;;;;;1701825;29;20626;-74
2022/12/26 10:21:15;;;;;;;4.93;4.53;;;11.80;97.20;;;;;;1701827;29;20234;-72
2022/12/26 10:22:18;;;;;;;5.53;5.00;;;11.80;97.20;;;;;;1701745;29;20216;-72
2022/12/26 10:23:28;;;;;;;6.50;5.70;;;11.80;97.20;;;;;;1701827;29;20238;-73
2022/12/26 10:24:24;;;;;;;7.15;5.90;;;11.90;97.20;;;;;;1701924;29;20571;-73
2022/12/26 10:25:21;;;;;;;7.53;6.18;;;11.90;97.20;;;;;;1701886;29;20188;-73
2022/12/26 10:26:16;;;;;;;6.60;6.00;;;11.90;97.20;;;;;;1698035;29;20259;-72
2022/12/26 10:27:13;;;;;;;5.63;5.03;;;11.90;97.20;;;;;;1693958;29;20230;-72
2022/12/26 10:28:09;;;;;;;5.95;5.22;;;11.90;97.20;;;;;;1694427;29;20678;-72
2022/12/26 10:29:10;;;;;;;8.45;5.97;;;12.00;97.20;;;;;;1695175;29;20203;-73
2022/12/26 10:30:04;;;;;;;6.63;5.15;;;12.00;97.20;;;;;;1695085;29;20599;-74
2022/12/26 10:30:59;;;;;;;6.05;5.03;;;12.00;97.20;;;;;;1694651;29;20232;-74
2022/12/26 10:31:54;;;;;;;5.03;4.60;;;12.00;97.20;;;;;;1695123;29;20647;-74
2022/12/26 10:32:50;;;;;;;5.22;4.72;;;12.10;97.20;;;;;;1695207;29;20211;-72
2022/12/26 10:33:45;;;;;;;6.28;5.13;;;12.10;97.20;;;;;;1695287;29;20199;-72
2022/12/26 10:34:41;;;;;;;6.97;4.90;;;12.10;97.20;;;;;;1695354;29;20203;-71
2022/12/26 10:35:36;;;;;;;4.93;4.53;;;12.10;97.20;;;;;;1694464;29;20677;-69
2022/12/26 10:36:35;;;;;;;5.38;4.10;;;12.10;97.20;;;;;;1697432;29;20650;-70
2022/12/26 10:37:30;;;;;;;5.60;4.50;;;12.20;97.20;;;;;;1699627;29;20512;-70
2022/12/26 10:38:30;;;;;;;4.82;4.20;;;12.20;97.20;;;;;;1701099;29;20203;-69
2022/12/26 10:39:28;;;;;;;6.07;4.85;;;12.20;97.20;;;;;;1701663;29;20199;-69